sensor_id;sensor_type;location;lat;lon;timestamp;pressure;altitude;pressure_sealevel;temperature;humidity
55932;BME280;41837;55.700;37.984;2022-12-18T00:01:18;99586.69;;;-4.37;100.00
55932;BME280;41837;55.700;37.984;2022-12-18T00:03:45;99574.63;;;-4.47;100.00
55932;BME280;41837;55.700;37.984;2022-12-18T00:06:14;99565.28;;;-4.45;100.00
55932;BME280;41837;55.700;37.984;2022-12-18T00:08:41;99565.00;;;-4.66;100.00
55932;BME280;41837;55.700;37.984;2022-12-18T00:11:12;99558.41;;;-4.52;100.00
55932;BME280;41837;55.700;37.984;2022-12-18T00:13:39;99555.88;;;-4.51;100.00
55932;BME280;41837;55.700;37.984;2022-12-18T00:16:08;99548.34;;;-4.43;100.00
55932;BME280;41837;55.700;37.984;2022-12-18T00:18:35;99532.03;;;-4.53;100.00
55932;BME280;41837;55.700;37.984;2022-12-18T00:21:04;99533.66;;;-4.58;100.00
55932;BME280;41837;55.700;37.984;2022-12-18T00:23:33;99541.25;;;-4.62;100.00
55932;BME280;41837;55.700;37.984;2022-12-18T00:26:00;99530.41;;;-4.47;100.00
55932;BME280;41837;55.700;37.984;2022-12-18T00:28:30;99528.56;;;-4.58;100.00
55932;BME280;41837;55.700;37.984;2022-12-18T00:31:08;99525.16;;;-4.57;100.00
55932;BME280;41837;55.700;37.984;2022-12-18T00:33:36;99524.25;;;-4.60;100.00
55932;BME280;41837;55.700;37.984;2022-12-18T00:38:31;99514.69;;;-4.77;100.00
55932;BME280;41837;55.700;37.984;2022-12-18T00:40:58;99500.41;;;-4.64;100.00
55932;BME280;41837;55.700;37.984;2022-12-18T00:43:24;99505.50;;;-4.64;100.00
55932;BME280;41837;55.700;37.984;2022-12-18T00:45:52;99502.00;;;-4.71;100.00
55932;BME280;41837;55.700;37.984;2022-12-18T00:48:19;99503.22;;;-4.45;100.00
55932;BME280;41837;55.700;37.984;2022-12-18T00:50:47;99501.22;;;-4.68;100.00
55932;BME280;41837;55.700;37.984;2022-12-18T00:53:14;99481.84;;;-4.52;100.00
55932;BME280;41837;55.700;37.984;2022-12-18T00:55:41;99489.16;;;-4.78;100.00
55932;BME280;41837;55.700;37.984;2022-12-18T00:58:10;99485.78;;;-4.76;100.00
55932;BME280;41837;55.700;37.984;2022-12-18T01:00:37;99460.47;;;-4.62;100.00
55932;BME280;41837;55.700;37.984;2022-12-18T01:03:04;99466.56;;;-4.52;100.00
55932;BME280;41837;55.700;37.984;2022-12-18T01:05:31;99463.16;;;-4.53;100.00
55932;BME280;41837;55.700;37.984;2022-12-18T01:07:58;99453.47;;;-4.77;100.00
55932;BME280;41837;55.700;37.984;2022-12-18T01:10:25;99441.16;;;-4.44;100.00
55932;BME280;41837;55.700;37.984;2022-12-18T01:12:52;99361.44;;;-4.92;100.00
55932;BME280;41837;55.700;37.984;2022-12-18T01:15:18;99410.97;;;-4.76;100.00
55932;BME280;41837;55.700;37.984;2022-12-18T01:17:45;99418.84;;;-4.59;100.00
55932;BME280;41837;55.700;37.984;2022-12-18T01:20:12;99429.91;;;-4.57;100.00
55932;BME280;41837;55.700;37.984;2022-12-18T01:22:38;99412.16;;;-4.51;100.00
55932;BME280;41837;55.700;37.984;2022-12-18T01:25:07;99427.28;;;-4.63;100.00
55932;BME280;41837;55.700;37.984;2022-12-18T01:27:33;99420.75;;;-4.43;100.00
55932;BME280;41837;55.700;37.984;2022-12-18T01:29:59;99414.63;;;-4.57;100.00
55932;BME280;41837;55.700;37.984;2022-12-18T01:32:28;99411.13;;;-4.64;100.00
55932;BME280;41837;55.700;37.984;2022-12-18T01:34:55;99406.16;;;-4.55;100.00
55932;BME280;41837;55.700;37.984;2022-12-18T01:37:21;99401.00;;;-4.58;100.00
55932;BME280;41837;55.700;37.984;2022-12-18T01:39:48;99425.16;;;-4.31;100.00
55932;BME280;41837;55.700;37.984;2022-12-18T01:42:16;99422.59;;;-4.29;100.00
55932;BME280;41837;55.700;37.984;2022-12-18T01:49:56;99392.75;;;-4.37;100.00
55932;BME280;41837;55.700;37.984;2022-12-18T01:52:25;99413.09;;;-4.41;100.00
55932;BME280;41837;55.700;37.984;2022-12-18T01:54:54;99409.97;;;-4.19;100.00
55932;BME280;41837;55.700;37.984;2022-12-18T01:57:22;99407.28;;;-4.33;100.00
55932;BME280;41837;55.700;37.984;2022-12-18T01:59:52;99408.84;;;-4.42;100.00
55932;BME280;41837;55.700;37.984;2022-12-18T02:02:20;99391.03;;;-4.36;100.00
55932;BME280;41837;55.700;37.984;2022-12-18T02:04:47;99385.25;;;-4.21;100.00
55932;BME280;41837;55.700;37.984;2022-12-18T02:12:52;99392.69;;;-4.41;100.00
55932;BME280;41837;55.700;37.984;2022-12-18T02:15:40;99391.97;;;-4.33;100.00
55932;BME280;41837;55.700;37.984;2022-12-18T02:18:32;99384.13;;;-4.46;100.00
55932;BME280;41837;55.700;37.984;2022-12-18T02:21:20;99398.53;;;-4.52;100.00
55932;BME280;41837;55.700;37.984;2022-12-18T02:23:57;99389.19;;;-4.51;100.00
55932;BME280;41837;55.700;37.984;2022-12-18T02:26:48;99395.88;;;-4.59;100.00
55932;BME280;41837;55.700;37.984;2022-12-18T02:29:33;99388.25;;;-4.59;100.00
55932;BME280;41837;55.700;37.984;2022-12-18T02:32:04;99388.94;;;-4.71;100.00
55932;BME280;41837;55.700;37.984;2022-12-18T02:34:35;99375.47;;;-4.61;100.00
55932;BME280;41837;55.700;37.984;2022-12-18T02:37:07;99366.97;;;-4.60;100.00
55932;BME280;41837;55.700;37.984;2022-12-18T02:39:39;99366.97;;;-4.58;100.00
55932;BME280;41837;55.700;37.984;2022-12-18T02:42:06;99379.69;;;-4.63;100.00
55932;BME280;41837;55.700;37.984;2022-12-18T02:44:46;99384.78;;;-4.63;100.00
55932;BME280;41837;55.700;37.984;2022-12-18T02:47:22;99378.78;;;-4.68;100.00
55932;BME280;41837;55.700;37.984;2022-12-18T03:01:04;99400.22;;;-4.52;100.00
55932;BME280;41837;55.700;37.984;2022-12-18T03:03:52;99392.63;;;-4.47;100.00
55932;BME280;41837;55.700;37.984;2022-12-18T03:06:39;99399.41;;;-4.50;100.00
55932;BME280;41837;55.700;37.984;2022-12-18T03:09:21;99400.25;;;-4.51;100.00
55932;BME280;41837;55.700;37.984;2022-12-18T03:11:56;99384.50;;;-4.86;100.00
55932;BME280;41837;55.700;37.984;2022-12-18T03:14:45;99375.47;;;-4.59;100.00
55932;BME280;41837;55.700;37.984;2022-12-18T03:17:17;99361.47;;;-4.91;100.00
55932;BME280;41837;55.700;37.984;2022-12-18T03:19:46;99353.06;;;-4.85;100.00
55932;BME280;41837;55.700;37.984;2022-12-18T03:22:15;99370.91;;;-4.85;100.00
55932;BME280;41837;55.700;37.984;2022-12-18T03:24:51;99375.13;;;-4.85;100.00
55932;BME280;41837;55.700;37.984;2022-12-18T03:27:20;99376.03;;;-4.85;100.00
55932;BME280;41837;55.700;37.984;2022-12-18T03:30:16;99394.88;;;-4.71;100.00
55932;BME280;41837;55.700;37.984;2022-12-18T03:32:58;99405.94;;;-4.70;100.00
55932;BME280;41837;55.700;37.984;2022-12-18T03:35:31;99406.66;;;-4.82;100.00
55932;BME280;41837;55.700;37.984;2022-12-18T03:37:59;99398.78;;;-4.99;100.00
55932;BME280;41837;55.700;37.984;2022-12-18T03:40:35;99397.31;;;-4.81;100.00
55932;BME280;41837;55.700;37.984;2022-12-18T03:43:19;99393.88;;;-4.85;100.00
55932;BME280;41837;55.700;37.984;2022-12-18T03:45:53;99393.78;;;-4.90;100.00
55932;BME280;41837;55.700;37.984;2022-12-18T03:48:29;99383.56;;;-4.93;100.00
55932;BME280;41837;55.700;37.984;2022-12-18T03:51:05;99389.88;;;-4.64;100.00
55932;BME280;41837;55.700;37.984;2022-12-18T03:53:48;99386.94;;;-4.95;100.00
55932;BME280;41837;55.700;37.984;2022-12-18T03:56:24;99370.75;;;-4.99;100.00
55932;BME280;41837;55.700;37.984;2022-12-18T03:58:52;99359.81;;;-4.90;100.00
55932;BME280;41837;55.700;37.984;2022-12-18T04:01:30;99384.59;;;-4.80;100.00
55932;BME280;41837;55.700;37.984;2022-12-18T04:03:59;99381.13;;;-4.85;100.00
55932;BME280;41837;55.700;37.984;2022-12-18T04:06:29;99384.72;;;-4.69;100.00
55932;BME280;41837;55.700;37.984;2022-12-18T04:08:57;99393.91;;;-4.82;100.00
55932;BME280;41837;55.700;37.984;2022-12-18T04:11:25;99404.06;;;-4.85;100.00
55932;BME280;41837;55.700;37.984;2022-12-18T04:13:55;99397.44;;;-4.71;100.00
55932;BME280;41837;55.700;37.984;2022-12-18T04:16:27;99404.72;;;-5.00;100.00
55932;BME280;41837;55.700;37.984;2022-12-18T04:18:56;99398.91;;;-4.88;100.00
55932;BME280;41837;55.700;37.984;2022-12-18T04:21:24;99393.66;;;-5.00;100.00
55932;BME280;41837;55.700;37.984;2022-12-18T04:23:51;99371.63;;;-4.95;100.00
55932;BME280;41837;55.700;37.984;2022-12-18T04:26:20;99380.38;;;-4.76;100.00
55932;BME280;41837;55.700;37.984;2022-12-18T04:29:10;99411.91;;;-4.70;100.00
55932;BME280;41837;55.700;37.984;2022-12-18T04:31:37;99430.03;;;-4.50;100.00
55932;BME280;41837;55.700;37.984;2022-12-18T04:34:04;99427.75;;;-4.91;100.00
55932;BME280;41837;55.700;37.984;2022-12-18T04:36:37;99437.34;;;-4.74;100.00
55932;BME280;41837;55.700;37.984;2022-12-18T04:39:03;99428.72;;;-4.84;100.00
55932;BME280;41837;55.700;37.984;2022-12-18T04:41:30;99432.00;;;-4.91;100.00
55932;BME280;41837;55.700;37.984;2022-12-18T04:43:57;99422.47;;;-5.04;100.00
55932;BME280;41837;55.700;37.984;2022-12-18T04:46:23;99437.31;;;-4.76;100.00
55932;BME280;41837;55.700;37.984;2022-12-18T04:48:49;99448.34;;;-4.80;100.00
55932;BME280;41837;55.700;37.984;2022-12-18T04:51:15;99458.47;;;-4.84;100.00
55932;BME280;41837;55.700;37.984;2022-12-18T04:53:42;99461.25;;;-4.68;100.00
55932;BME280;41837;55.700;37.984;2022-12-18T04:56:13;99464.28;;;-4.93;100.00
55932;BME280;41837;55.700;37.984;2022-12-18T04:58:41;99466.72;;;-4.99;100.00
55932;BME280;41837;55.700;37.984;2022-12-18T05:01:08;99483.41;;;-4.63;100.00
55932;BME280;41837;55.700;37.984;2022-12-18T05:03:35;99491.47;;;-4.92;100.00
55932;BME280;41837;55.700;37.984;2022-12-18T05:06:02;99474.34;;;-5.01;98.84
55932;BME280;41837;55.700;37.984;2022-12-18T05:08:29;99506.50;;;-4.54;98.63
55932;BME280;41837;55.700;37.984;2022-12-18T05:11:08;99513.09;;;-4.67;98.92
55932;BME280;41837;55.700;37.984;2022-12-18T05:13:35;99521.91;;;-5.03;100.00
55932;BME280;41837;55.700;37.984;2022-12-18T05:16:01;99511.94;;;-4.89;100.00
55932;BME280;41837;55.700;37.984;2022-12-18T05:18:28;99517.41;;;-4.64;100.00
55932;BME280;41837;55.700;37.984;2022-12-18T05:20:54;99509.47;;;-4.84;100.00
55932;BME280;41837;55.700;37.984;2022-12-18T05:23:22;99510.34;;;-4.82;100.00
55932;BME280;41837;55.700;37.984;2022-12-18T05:25:59;99517.94;;;-4.87;99.91
55932;BME280;41837;55.700;37.984;2022-12-18T05:28:27;99524.50;;;-5.00;100.00
55932;BME280;41837;55.700;37.984;2022-12-18T05:31:01;99510.28;;;-4.85;99.42
55932;BME280;41837;55.700;37.984;2022-12-18T05:33:30;99508.16;;;-5.13;99.69
55932;BME280;41837;55.700;37.984;2022-12-18T05:36:00;99498.97;;;-5.03;99.83
55932;BME280;41837;55.700;37.984;2022-12-18T05:38:27;99500.59;;;-5.08;99.88
55932;BME280;41837;55.700;37.984;2022-12-18T05:40:54;99522.53;;;-5.16;100.00
55932;BME280;41837;55.700;37.984;2022-12-18T05:43:22;99531.03;;;-5.17;100.00
55932;BME280;41837;55.700;37.984;2022-12-18T05:45:49;99532.19;;;-4.98;100.00
55932;BME280;41837;55.700;37.984;2022-12-18T05:48:16;99546.31;;;-5.17;100.00
55932;BME280;41837;55.700;37.984;2022-12-18T05:50:45;99537.84;;;-5.16;99.67
55932;BME280;41837;55.700;37.984;2022-12-18T05:53:13;99542.38;;;-4.98;100.00
55932;BME280;41837;55.700;37.984;2022-12-18T05:55:41;99544.94;;;-4.98;99.56
55932;BME280;41837;55.700;37.984;2022-12-18T05:58:10;99552.47;;;-5.04;99.00
55932;BME280;41837;55.700;37.984;2022-12-18T06:00:38;99552.84;;;-4.81;98.21
55932;BME280;41837;55.700;37.984;2022-12-18T06:03:10;99558.66;;;-4.90;99.09
55932;BME280;41837;55.700;37.984;2022-12-18T06:05:41;99563.94;;;-4.79;98.28
55932;BME280;41837;55.700;37.984;2022-12-18T06:08:10;99566.75;;;-5.16;97.95
55932;BME280;41837;55.700;37.984;2022-12-18T06:10:36;99564.66;;;-4.88;97.81
55932;BME280;41837;55.700;37.984;2022-12-18T06:13:04;99579.88;;;-4.91;97.68
55932;BME280;41837;55.700;37.984;2022-12-18T06:15:30;99574.03;;;-4.87;98.21
55932;BME280;41837;55.700;37.984;2022-12-18T06:17:56;99579.97;;;-4.87;97.60
55932;BME280;41837;55.700;37.984;2022-12-18T06:20:23;99591.28;;;-4.69;96.87
55932;BME280;41837;55.700;37.984;2022-12-18T06:22:50;99591.88;;;-4.87;98.22
55932;BME280;41837;55.700;37.984;2022-12-18T06:25:16;99591.84;;;-4.89;98.84
55932;BME280;41837;55.700;37.984;2022-12-18T06:27:43;99600.28;;;-4.91;98.89
55932;BME280;41837;55.700;37.984;2022-12-18T06:30:09;99591.69;;;-4.98;100.00
55932;BME280;41837;55.700;37.984;2022-12-18T06:32:36;99596.50;;;-5.13;100.00
55932;BME280;41837;55.700;37.984;2022-12-18T06:35:02;99579.50;;;-5.16;100.00
55932;BME280;41837;55.700;37.984;2022-12-18T06:37:31;99589.84;;;-5.07;100.00
55932;BME280;41837;55.700;37.984;2022-12-18T06:39:57;99599.13;;;-5.10;100.00
55932;BME280;41837;55.700;37.984;2022-12-18T06:42:24;99596.84;;;-4.95;100.00
55932;BME280;41837;55.700;37.984;2022-12-18T06:44:50;99606.75;;;-5.10;100.00
55932;BME280;41837;55.700;37.984;2022-12-18T06:47:17;99617.59;;;-5.22;100.00
55932;BME280;41837;55.700;37.984;2022-12-18T06:49:43;99617.31;;;-4.90;99.81
55932;BME280;41837;55.700;37.984;2022-12-18T06:52:10;99630.00;;;-4.93;99.51
55932;BME280;41837;55.700;37.984;2022-12-18T06:54:36;99640.31;;;-4.85;98.60
55932;BME280;41837;55.700;37.984;2022-12-18T06:57:03;99646.28;;;-4.87;97.63
55932;BME280;41837;55.700;37.984;2022-12-18T06:59:30;99666.34;;;-4.56;96.30
55932;BME280;41837;55.700;37.984;2022-12-18T07:01:56;99645.03;;;-5.09;96.91
55932;BME280;41837;55.700;37.984;2022-12-18T07:04:27;99671.25;;;-4.67;97.69
55932;BME280;41837;55.700;37.984;2022-12-18T07:06:54;99673.50;;;-4.84;96.99
55932;BME280;41837;55.700;37.984;2022-12-18T07:09:20;99683.31;;;-4.57;96.98
55932;BME280;41837;55.700;37.984;2022-12-18T07:11:46;99682.22;;;-4.73;96.39
55932;BME280;41837;55.700;37.984;2022-12-18T07:14:12;99684.44;;;-4.41;94.84
55932;BME280;41837;55.700;37.984;2022-12-18T07:16:38;99690.94;;;-4.60;95.04
55932;BME280;41837;55.700;37.984;2022-12-18T07:19:04;99685.63;;;-4.71;96.11
55932;BME280;41837;55.700;37.984;2022-12-18T07:21:30;99685.06;;;-4.54;95.06
55932;BME280;41837;55.700;37.984;2022-12-18T07:23:57;99684.53;;;-4.35;95.22
55932;BME280;41837;55.700;37.984;2022-12-18T07:26:23;99673.00;;;-4.64;92.59
55932;BME280;41837;55.700;37.984;2022-12-18T07:28:50;99693.38;;;-4.66;93.88
55932;BME280;41837;55.700;37.984;2022-12-18T07:31:21;99676.13;;;-4.79;93.05
55932;BME280;41837;55.700;37.984;2022-12-18T07:33:48;99694.38;;;-4.58;93.75
55932;BME280;41837;55.700;37.984;2022-12-18T07:36:15;99706.97;;;-4.65;92.63
55932;BME280;41837;55.700;37.984;2022-12-18T07:38:41;99711.63;;;-4.44;90.94
55932;BME280;41837;55.700;37.984;2022-12-18T07:41:12;99719.28;;;-4.44;89.42
55932;BME280;41837;55.700;37.984;2022-12-18T07:43:40;99729.03;;;-4.20;89.00
55932;BME280;41837;55.700;37.984;2022-12-18T07:46:08;99731.75;;;-4.60;90.21
55932;BME280;41837;55.700;37.984;2022-12-18T07:48:35;99729.69;;;-4.31;89.95
55932;BME280;41837;55.700;37.984;2022-12-18T07:51:03;99724.81;;;-4.67;89.52
55932;BME280;41837;55.700;37.984;2022-12-18T07:53:31;99728.78;;;-4.36;87.50
55932;BME280;41837;55.700;37.984;2022-12-18T07:56:07;99738.25;;;-4.27;88.04
55932;BME280;41837;55.700;37.984;2022-12-18T07:58:35;99731.19;;;-4.42;87.87
55932;BME280;41837;55.700;37.984;2022-12-18T08:01:09;99736.50;;;-4.31;88.03
55932;BME280;41837;55.700;37.984;2022-12-18T08:03:36;99732.28;;;-4.29;87.89
55932;BME280;41837;55.700;37.984;2022-12-18T08:06:04;99725.38;;;-4.35;87.87
55932;BME280;41837;55.700;37.984;2022-12-18T08:08:31;99735.47;;;-4.42;88.22
55932;BME280;41837;55.700;37.984;2022-12-18T08:10:57;99744.34;;;-4.20;87.86
55932;BME280;41837;55.700;37.984;2022-12-18T08:13:24;99737.94;;;-4.45;87.76
55932;BME280;41837;55.700;37.984;2022-12-18T08:15:57;99736.09;;;-4.54;87.70
55932;BME280;41837;55.700;37.984;2022-12-18T08:18:25;99752.06;;;-4.16;87.29
55932;BME280;41837;55.700;37.984;2022-12-18T08:20:51;99762.69;;;-4.41;86.49
55932;BME280;41837;55.700;37.984;2022-12-18T08:23:17;99765.78;;;-4.07;86.03
55932;BME280;41837;55.700;37.984;2022-12-18T08:25:43;99774.78;;;-4.29;86.77
55932;BME280;41837;55.700;37.984;2022-12-18T08:28:14;99777.28;;;-4.34;86.73
55932;BME280;41837;55.700;37.984;2022-12-18T08:30:40;99792.78;;;-4.23;86.15
55932;BME280;41837;55.700;37.984;2022-12-18T08:33:06;99790.41;;;-4.13;86.41
55932;BME280;41837;55.700;37.984;2022-12-18T08:35:35;99782.56;;;-4.23;85.96
55932;BME280;41837;55.700;37.984;2022-12-18T08:38:03;99788.75;;;-4.10;85.27
55932;BME280;41837;55.700;37.984;2022-12-18T08:40:29;99805.88;;;-4.03;85.07
55932;BME280;41837;55.700;37.984;2022-12-18T08:42:56;99805.84;;;-4.05;85.82
55932;BME280;41837;55.700;37.984;2022-12-18T08:45:41;99819.84;;;-4.32;84.10
55932;BME280;41837;55.700;37.984;2022-12-18T08:48:07;99826.78;;;-4.24;87.09
55932;BME280;41837;55.700;37.984;2022-12-18T08:50:33;99820.94;;;-4.19;86.73
55932;BME280;41837;55.700;37.984;2022-12-18T08:53:00;99828.63;;;-4.17;87.35
55932;BME280;41837;55.700;37.984;2022-12-18T08:55:27;99827.16;;;-4.03;87.83
55932;BME280;41837;55.700;37.984;2022-12-18T08:57:53;99833.91;;;-4.06;86.44
55932;BME280;41837;55.700;37.984;2022-12-18T09:00:20;99833.50;;;-3.81;86.66
55932;BME280;41837;55.700;37.984;2022-12-18T09:02:46;99839.66;;;-4.18;86.77
55932;BME280;41837;55.700;37.984;2022-12-18T09:05:13;99842.34;;;-4.12;87.67
55932;BME280;41837;55.700;37.984;2022-12-18T09:07:39;99841.44;;;-4.16;87.59
55932;BME280;41837;55.700;37.984;2022-12-18T09:10:06;99836.56;;;-4.02;87.33
55932;BME280;41837;55.700;37.984;2022-12-18T09:12:32;99837.06;;;-4.21;88.13
55932;BME280;41837;55.700;37.984;2022-12-18T09:14:58;99826.47;;;-3.92;88.29
55932;BME280;41837;55.700;37.984;2022-12-18T09:17:24;99838.13;;;-4.10;89.26
55932;BME280;41837;55.700;37.984;2022-12-18T09:19:50;99836.91;;;-4.31;89.11
55932;BME280;41837;55.700;37.984;2022-12-18T09:22:16;99855.88;;;-4.15;88.61
55932;BME280;41837;55.700;37.984;2022-12-18T09:24:43;99854.16;;;-4.17;90.46
55932;BME280;41837;55.700;37.984;2022-12-18T09:27:09;99869.22;;;-3.82;88.67
55932;BME280;41837;55.700;37.984;2022-12-18T09:29:36;99869.44;;;-3.70;87.95
55932;BME280;41837;55.700;37.984;2022-12-18T09:32:02;99862.34;;;-3.86;88.54
55932;BME280;41837;55.700;37.984;2022-12-18T09:34:28;99863.09;;;-3.94;87.91
55932;BME280;41837;55.700;37.984;2022-12-18T09:36:54;99872.31;;;-4.02;89.16
55932;BME280;41837;55.700;37.984;2022-12-18T09:39:20;99864.53;;;-4.08;89.36
55932;BME280;41837;55.700;37.984;2022-12-18T09:41:55;99874.56;;;-3.70;87.82
55932;BME280;41837;55.700;37.984;2022-12-18T09:44:29;99884.50;;;-3.87;89.06
55932;BME280;41837;55.700;37.984;2022-12-18T09:47:22;99881.63;;;-4.02;89.85
55932;BME280;41837;55.700;37.984;2022-12-18T09:49:56;99881.06;;;-3.87;89.99
55932;BME280;41837;55.700;37.984;2022-12-18T09:52:29;99887.00;;;-3.88;91.26
55932;BME280;41837;55.700;37.984;2022-12-18T09:55:05;99889.19;;;-3.61;91.49
55932;BME280;41837;55.700;37.984;2022-12-18T09:57:40;99887.81;;;-3.91;90.91
55932;BME280;41837;55.700;37.984;2022-12-18T10:00:19;99893.75;;;-3.94;91.22
55932;BME280;41837;55.700;37.984;2022-12-18T10:02:47;99881.72;;;-3.98;91.37
55932;BME280;41837;55.700;37.984;2022-12-18T10:05:16;99896.25;;;-3.95;92.24
55932;BME280;41837;55.700;37.984;2022-12-18T10:10:50;99911.00;;;-3.79;92.27
55932;BME280;41837;55.700;37.984;2022-12-18T10:19:01;99886.09;;;-3.90;91.11
55932;BME280;41837;55.700;37.984;2022-12-18T10:22:02;99914.66;;;-3.66;91.74
55932;BME280;41837;55.700;37.984;2022-12-18T10:27:19;99904.72;;;-3.98;92.26
55932;BME280;41837;55.700;37.984;2022-12-18T10:29:49;99914.66;;;-3.64;91.14
55932;BME280;41837;55.700;37.984;2022-12-18T10:32:24;99910.28;;;-3.73;91.16
55932;BME280;41837;55.700;37.984;2022-12-18T10:34:54;99915.06;;;-3.91;92.41
55932;BME280;41837;55.700;37.984;2022-12-18T10:37:23;99901.44;;;-3.90;92.88
55932;BME280;41837;55.700;37.984;2022-12-18T10:40:10;99910.97;;;-3.82;93.09
55932;BME280;41837;55.700;37.984;2022-12-18T10:42:38;99906.50;;;-3.94;94.09
55932;BME280;41837;55.700;37.984;2022-12-18T10:45:16;99911.09;;;-3.74;93.37
55932;BME280;41837;55.700;37.984;2022-12-18T10:47:48;99904.78;;;-3.95;94.24
55932;BME280;41837;55.700;37.984;2022-12-18T10:50:35;99916.16;;;-3.76;93.42
55932;BME280;41837;55.700;37.984;2022-12-18T10:53:04;99926.16;;;-3.89;92.10
55932;BME280;41837;55.700;37.984;2022-12-18T10:55:37;99923.25;;;-4.08;94.73
55932;BME280;41837;55.700;37.984;2022-12-18T10:58:21;99950.72;;;-3.96;94.98
55932;BME280;41837;55.700;37.984;2022-12-18T11:01:15;99947.72;;;-3.75;94.40
55932;BME280;41837;55.700;37.984;2022-12-18T11:03:45;99956.28;;;-3.71;94.46
55932;BME280;41837;55.700;37.984;2022-12-18T11:06:14;99961.09;;;-4.31;94.76
55932;BME280;41837;55.700;37.984;2022-12-18T11:08:46;99989.31;;;-3.81;95.07
55932;BME280;41837;55.700;37.984;2022-12-18T11:11:23;99986.75;;;-3.81;93.55
55932;BME280;41837;55.700;37.984;2022-12-18T11:14:06;99997.41;;;-4.03;93.02
55932;BME280;41837;55.700;37.984;2022-12-18T11:16:43;99990.78;;;-3.94;92.82
55932;BME280;41837;55.700;37.984;2022-12-18T11:19:36;99991.72;;;-3.88;93.09
55932;BME280;41837;55.700;37.984;2022-12-18T11:22:23;99995.88;;;-3.94;92.70
55932;BME280;41837;55.700;37.984;2022-12-18T11:27:48;99992.38;;;-3.97;93.75
55932;BME280;41837;55.700;37.984;2022-12-18T11:30:23;99990.84;;;-3.89;93.54
55932;BME280;41837;55.700;37.984;2022-12-18T11:35:49;100007.38;;;-4.16;94.87
55932;BME280;41837;55.700;37.984;2022-12-18T11:40:56;100011.75;;;-4.08;96.53
55932;BME280;41837;55.700;37.984;2022-12-18T11:43:32;100021.47;;;-3.90;95.56
55932;BME280;41837;55.700;37.984;2022-12-18T11:46:15;100012.78;;;-4.00;97.42
55932;BME280;41837;55.700;37.984;2022-12-18T11:50:02;100026.56;;;-4.33;96.30
55932;BME280;41837;55.700;37.984;2022-12-18T11:52:38;100037.66;;;-4.33;98.43
55932;BME280;41837;55.700;37.984;2022-12-18T11:55:12;100037.13;;;-4.16;99.03
55932;BME280;41837;55.700;37.984;2022-12-18T12:00:14;100050.91;;;-4.08;97.60
55932;BME280;41837;55.700;37.984;2022-12-18T12:03:06;100050.56;;;-4.25;98.90
55932;BME280;41837;55.700;37.984;2022-12-18T12:18:04;100089.53;;;-4.32;99.30
55932;BME280;41837;55.700;37.984;2022-12-18T12:20:56;100086.28;;;-4.63;100.00
55932;BME280;41837;55.700;37.984;2022-12-18T12:23:47;100094.75;;;-4.27;100.00
55932;BME280;41837;55.700;37.984;2022-12-18T12:26:28;100089.16;;;-4.49;100.00
55932;BME280;41837;55.700;37.984;2022-12-18T12:29:13;100098.50;;;-4.50;99.73
55932;BME280;41837;55.700;37.984;2022-12-18T12:34:29;100106.22;;;-4.48;98.61
55932;BME280;41837;55.700;37.984;2022-12-18T12:37:11;100107.53;;;-4.27;97.27
55932;BME280;41837;55.700;37.984;2022-12-18T12:39:44;100119.97;;;-4.40;98.32
55932;BME280;41837;55.700;37.984;2022-12-18T12:45:28;100119.69;;;-4.52;100.00
55932;BME280;41837;55.700;37.984;2022-12-18T12:47:58;100123.03;;;-4.56;99.20
55932;BME280;41837;55.700;37.984;2022-12-18T12:50:25;100137.19;;;-4.33;100.00
55932;BME280;41837;55.700;37.984;2022-12-18T12:52:55;100133.44;;;-4.47;100.00
55932;BME280;41837;55.700;37.984;2022-12-18T12:55:24;100137.44;;;-4.57;100.00
55932;BME280;41837;55.700;37.984;2022-12-18T12:58:10;100142.41;;;-4.63;99.19
55932;BME280;41837;55.700;37.984;2022-12-18T13:00:48;100152.75;;;-4.22;98.77
55932;BME280;41837;55.700;37.984;2022-12-18T13:08:59;100147.78;;;-4.52;96.39
55932;BME280;41837;55.700;37.984;2022-12-18T13:14:31;100188.13;;;-4.37;95.46
55932;BME280;41837;55.700;37.984;2022-12-18T13:19:51;100195.50;;;-4.48;96.42
55932;BME280;41837;55.700;37.984;2022-12-18T13:22:25;100207.47;;;-4.10;97.43
55932;BME280;41837;55.700;37.984;2022-12-18T13:24:54;100196.00;;;-4.26;96.49
55932;BME280;41837;55.700;37.984;2022-12-18T13:27:46;100205.53;;;-4.19;96.04
55932;BME280;41837;55.700;37.984;2022-12-18T13:41:44;100232.31;;;-4.03;95.10
55932;BME280;41837;55.700;37.984;2022-12-18T13:46:48;100234.59;;;-4.14;97.58
55932;BME280;41837;55.700;37.984;2022-12-18T13:49:36;100228.44;;;-4.57;98.12
55932;BME280;41837;55.700;37.984;2022-12-18T13:52:18;100252.09;;;-4.29;99.29
55932;BME280;41837;55.700;37.984;2022-12-18T13:54:55;100255.75;;;-4.20;97.00
55932;BME280;41837;55.700;37.984;2022-12-18T13:57:33;100260.81;;;-4.21;99.29
55932;BME280;41837;55.700;37.984;2022-12-18T14:02:49;100267.44;;;-4.28;99.64
55932;BME280;41837;55.700;37.984;2022-12-18T14:05:27;100282.28;;;-4.48;99.99
55932;BME280;41837;55.700;37.984;2022-12-18T14:07:55;100290.78;;;-4.47;100.00
55932;BME280;41837;55.700;37.984;2022-12-18T14:10:26;100289.09;;;-4.47;100.00
55932;BME280;41837;55.700;37.984;2022-12-18T14:12:53;100283.66;;;-4.27;100.00
55932;BME280;41837;55.700;37.984;2022-12-18T14:15:43;100295.94;;;-4.46;100.00
55932;BME280;41837;55.700;37.984;2022-12-18T14:18:20;100303.50;;;-4.49;100.00
55932;BME280;41837;55.700;37.984;2022-12-18T14:20:49;100315.63;;;-4.40;100.00
55932;BME280;41837;55.700;37.984;2022-12-18T14:23:29;100312.38;;;-4.35;100.00
55932;BME280;41837;55.700;37.984;2022-12-18T14:25:56;100314.03;;;-4.37;100.00
55932;BME280;41837;55.700;37.984;2022-12-18T14:28:23;100315.28;;;-4.54;100.00
55932;BME280;41837;55.700;37.984;2022-12-18T14:30:50;100319.53;;;-4.55;100.00
55932;BME280;41837;55.700;37.984;2022-12-18T14:33:18;100334.25;;;-4.44;100.00
55932;BME280;41837;55.700;37.984;2022-12-18T14:36:03;100327.28;;;-4.50;100.00
55932;BME280;41837;55.700;37.984;2022-12-18T14:38:31;100335.03;;;-4.47;100.00